sensor_id;sensor_type;location;lat;lon;timestamp;pressure;altitude;pressure_sealevel;temperature
76541;BMP280;65385;55.772;37.658;2023-07-24T00:00:57;99086.34;;;15.18
76541;BMP280;65385;55.772;37.658;2023-07-24T00:01:57;99082.16;;;15.17
76541;BMP280;65385;55.772;37.658;2023-07-24T00:02:58;99087.78;;;15.15
76541;BMP280;65385;55.772;37.658;2023-07-24T00:03:59;99080.16;;;15.14
76541;BMP280;65385;55.772;37.658;2023-07-24T00:04:59;99082.31;;;15.12
76541;BMP280;65385;55.772;37.658;2023-07-24T00:06:01;99086.03;;;15.11
76541;BMP280;65385;55.772;37.658;2023-07-24T00:07:02;99085.25;;;15.10
76541;BMP280;65385;55.772;37.658;2023-07-24T00:08:03;99090.84;;;15.09
76541;BMP280;65385;55.772;37.658;2023-07-24T00:09:04;99089.28;;;15.08
76541;BMP280;65385;55.772;37.658;2023-07-24T00:10:05;99088.78;;;15.06
76541;BMP280;65385;55.772;37.658;2023-07-24T00:11:07;99088.00;;;15.05
76541;BMP280;65385;55.772;37.658;2023-07-24T00:12:08;99099.66;;;15.04
76541;BMP280;65385;55.772;37.658;2023-07-24T00:13:09;99096.22;;;15.04
76541;BMP280;65385;55.772;37.658;2023-07-24T00:14:09;99091.28;;;15.02
76541;BMP280;65385;55.772;37.658;2023-07-24T00:15:10;99090.78;;;15.00
76541;BMP280;65385;55.772;37.658;2023-07-24T00:16:10;99094.53;;;14.99
76541;BMP280;65385;55.772;37.658;2023-07-24T00:17:11;99095.91;;;14.97
76541;BMP280;65385;55.772;37.658;2023-07-24T00:18:12;99092.47;;;14.96
76541;BMP280;65385;55.772;37.658;2023-07-24T00:19:12;99089.84;;;14.96
76541;BMP280;65385;55.772;37.658;2023-07-24T00:20:13;99098.06;;;14.95
76541;BMP280;65385;55.772;37.658;2023-07-24T00:21:13;99093.88;;;14.94
76541;BMP280;65385;55.772;37.658;2023-07-24T00:22:14;99097.28;;;14.94
76541;BMP280;65385;55.772;37.658;2023-07-24T00:23:15;99090.47;;;14.93
76541;BMP280;65385;55.772;37.658;2023-07-24T00:24:15;99093.41;;;14.92
76541;BMP280;65385;55.772;37.658;2023-07-24T00:25:16;99091.06;;;14.90
76541;BMP280;65385;55.772;37.658;2023-07-24T00:26:17;99101.09;;;14.88
76541;BMP280;65385;55.772;37.658;2023-07-24T00:27:17;99095.13;;;14.87
76541;BMP280;65385;55.772;37.658;2023-07-24T00:28:19;99087.78;;;14.84
76541;BMP280;65385;55.772;37.658;2023-07-24T00:29:20;99092.00;;;14.85
76541;BMP280;65385;55.772;37.658;2023-07-24T00:30:20;99095.69;;;14.84
76541;BMP280;65385;55.772;37.658;2023-07-24T00:31:21;99088.09;;;14.83
76541;BMP280;65385;55.772;37.658;2023-07-24T00:32:21;99082.34;;;14.81
76541;BMP280;65385;55.772;37.658;2023-07-24T00:33:22;99082.66;;;14.79
76541;BMP280;65385;55.772;37.658;2023-07-24T00:34:23;99094.28;;;14.78
76541;BMP280;65385;55.772;37.658;2023-07-24T00:35:33;99074.28;;;14.77
76541;BMP280;65385;55.772;37.658;2023-07-24T00:36:34;99093.50;;;14.78
76541;BMP280;65385;55.772;37.658;2023-07-24T00:37:35;99084.81;;;14.77
76541;BMP280;65385;55.772;37.658;2023-07-24T00:38:35;99084.03;;;14.77
76541;BMP280;65385;55.772;37.658;2023-07-24T00:39:36;99073.81;;;14.75
76541;BMP280;65385;55.772;37.658;2023-07-24T00:40:36;99086.19;;;14.75
76541;BMP280;65385;55.772;37.658;2023-07-24T00:41:37;99085.41;;;14.74
76541;BMP280;65385;55.772;37.658;2023-07-24T00:42:38;99082.31;;;14.72
76541;BMP280;65385;55.772;37.658;2023-07-24T00:43:38;99080.28;;;14.69
76541;BMP280;65385;55.772;37.658;2023-07-24T00:44:39;99080.59;;;14.68
76541;BMP280;65385;55.772;37.658;2023-07-24T00:45:40;99081.66;;;14.67
76541;BMP280;65385;55.772;37.658;2023-07-24T00:46:40;99086.13;;;14.66
76541;BMP280;65385;55.772;37.658;2023-07-24T00:47:42;99082.28;;;14.64
76541;BMP280;65385;55.772;37.658;2023-07-24T00:48:43;99084.13;;;14.63
76541;BMP280;65385;55.772;37.658;2023-07-24T00:49:44;99087.84;;;14.62
76541;BMP280;65385;55.772;37.658;2023-07-24T00:50:45;99082.09;;;14.60
76541;BMP280;65385;55.772;37.658;2023-07-24T00:51:47;99088.41;;;14.59
76541;BMP280;65385;55.772;37.658;2023-07-24T00:52:47;99086.91;;;14.58
76541;BMP280;65385;55.772;37.658;2023-07-24T00:53:48;99088.75;;;14.58
76541;BMP280;65385;55.772;37.658;2023-07-24T00:54:49;99089.03;;;14.56
76541;BMP280;65385;55.772;37.658;2023-07-24T00:55:49;99088.56;;;14.54
76541;BMP280;65385;55.772;37.658;2023-07-24T00:56:50;99088.09;;;14.52
76541;BMP280;65385;55.772;37.658;2023-07-24T00:57:51;99089.19;;;14.51
76541;BMP280;65385;55.772;37.658;2023-07-24T00:58:54;99085.00;;;14.50
76541;BMP280;65385;55.772;37.658;2023-07-24T00:59:56;99085.00;;;14.50
76541;BMP280;65385;55.772;37.658;2023-07-24T01:00:57;99088.69;;;14.49
76541;BMP280;65385;55.772;37.658;2023-07-24T01:01:58;99087.31;;;14.52
76541;BMP280;65385;55.772;37.658;2023-07-24T01:02:59;99090.72;;;14.52
76541;BMP280;65385;55.772;37.658;2023-07-24T01:04:01;99087.31;;;14.52
76541;BMP280;65385;55.772;37.658;2023-07-24T01:05:02;99089.94;;;14.52
76541;BMP280;65385;55.772;37.658;2023-07-24T01:06:06;99084.69;;;14.52
76541;BMP280;65385;55.772;37.658;2023-07-24T01:07:08;99084.69;;;14.52
76541;BMP280;65385;55.772;37.658;2023-07-24T01:08:11;99087.31;;;14.52
76541;BMP280;65385;55.772;37.658;2023-07-24T01:09:12;99085.78;;;14.51
76541;BMP280;65385;55.772;37.658;2023-07-24T01:10:13;99085.78;;;14.51
76541;BMP280;65385;55.772;37.658;2023-07-24T01:11:19;99088.41;;;14.51
76541;BMP280;65385;55.772;37.658;2023-07-24T01:13:28;99088.50;;;14.46
76541;BMP280;65385;55.772;37.658;2023-07-24T01:14:41;99083.25;;;14.46
76541;BMP280;65385;55.772;37.658;2023-07-24T01:16:03;99083.53;;;14.44
76541;BMP280;65385;55.772;37.658;2023-07-24T01:17:07;99091.06;;;14.37
76541;BMP280;65385;55.772;37.658;2023-07-24T01:18:09;99087.38;;;14.38
76541;BMP280;65385;55.772;37.658;2023-07-24T01:19:30;99086.31;;;14.39
76541;BMP280;65385;55.772;37.658;2023-07-24T01:20:36;99092.63;;;14.38
76541;BMP280;65385;55.772;37.658;2023-07-24T01:23:23;99084.75;;;14.38
76541;BMP280;65385;55.772;37.658;2023-07-24T01:24:40;99079.47;;;14.38
76541;BMP280;65385;55.772;37.658;2023-07-24T01:25:56;99088.94;;;14.39
76541;BMP280;65385;55.772;37.658;2023-07-24T01:26:58;99084.75;;;14.38
76541;BMP280;65385;55.772;37.658;2023-07-24T01:27:58;99081.81;;;14.40
76541;BMP280;65385;55.772;37.658;2023-07-24T01:28:59;99084.94;;;14.42
76541;BMP280;65385;55.772;37.658;2023-07-24T01:29:59;99081.50;;;14.41
76541;BMP280;65385;55.772;37.658;2023-07-24T01:31:00;99082.28;;;14.42
76541;BMP280;65385;55.772;37.658;2023-07-24T01:32:01;99076.75;;;14.43
76541;BMP280;65385;55.772;37.658;2023-07-24T01:33:02;99076.91;;;14.47
76541;BMP280;65385;55.772;37.658;2023-07-24T01:34:02;99069.66;;;14.52
76541;BMP280;65385;55.772;37.658;2023-07-24T01:35:04;99067.34;;;14.59
76541;BMP280;65385;55.772;37.658;2023-07-24T01:36:05;99055.66;;;14.65
76541;BMP280;65385;55.772;37.658;2023-07-24T01:37:06;99076.59;;;14.70
76541;BMP280;65385;55.772;37.658;2023-07-24T01:38:07;99071.19;;;14.75
76541;BMP280;65385;55.772;37.658;2023-07-24T01:39:09;99072.00;;;14.84
76541;BMP280;65385;55.772;37.658;2023-07-24T01:40:11;99070.78;;;14.90
76541;BMP280;65385;55.772;37.658;2023-07-24T01:41:12;99068.78;;;14.96
76541;BMP280;65385;55.772;37.658;2023-07-24T01:42:13;99067.41;;;14.99
76541;BMP280;65385;55.772;37.658;2023-07-24T01:43:14;99073.47;;;15.08
76541;BMP280;65385;55.772;37.658;2023-07-24T01:44:15;99069.47;;;15.19
76541;BMP280;65385;55.772;37.658;2023-07-24T01:45:16;99066.41;;;15.34
76541;BMP280;65385;55.772;37.658;2023-07-24T01:46:16;99064.13;;;15.50
76541;BMP280;65385;55.772;37.658;2023-07-24T01:47:18;99066.31;;;15.65
76541;BMP280;65385;55.772;37.658;2023-07-24T01:48:18;99066.13;;;15.78
76541;BMP280;65385;55.772;37.658;2023-07-24T01:49:19;99061.94;;;15.94
76541;BMP280;65385;55.772;37.658;2023-07-24T01:50:19;99057.28;;;16.09
76541;BMP280;65385;55.772;37.658;2023-07-24T01:51:21;99068.91;;;16.25
76541;BMP280;65385;55.772;37.658;2023-07-24T01:52:21;99071.81;;;16.40
76541;BMP280;65385;55.772;37.658;2023-07-24T01:53:22;99073.59;;;16.57
76541;BMP280;65385;55.772;37.658;2023-07-24T01:54:23;99074.63;;;16.73
76541;BMP280;65385;55.772;37.658;2023-07-24T01:55:24;99066.97;;;16.89
76541;BMP280;65385;55.772;37.658;2023-07-24T01:56:25;99072.47;;;17.04
76541;BMP280;65385;55.772;37.658;2023-07-24T01:57:26;99068.16;;;17.21
76541;BMP280;65385;55.772;37.658;2023-07-24T01:58:26;99068.25;;;17.33
76541;BMP280;65385;55.772;37.658;2023-07-24T01:59:27;99065.03;;;17.48
76541;BMP280;65385;55.772;37.658;2023-07-24T02:00:27;99064.78;;;17.61
76541;BMP280;65385;55.772;37.658;2023-07-24T02:01:34;99064.66;;;17.79
76541;BMP280;65385;55.772;37.658;2023-07-24T02:02:35;99075.81;;;17.96
76541;BMP280;65385;55.772;37.658;2023-07-24T02:03:35;99076.31;;;18.10
76541;BMP280;65385;55.772;37.658;2023-07-24T02:04:36;99066.00;;;18.30
76541;BMP280;65385;55.772;37.658;2023-07-24T02:05:38;99077.50;;;18.46
76541;BMP280;65385;55.772;37.658;2023-07-24T02:06:39;99069.22;;;18.59
76541;BMP280;65385;55.772;37.658;2023-07-24T02:07:39;99071.56;;;18.73
76541;BMP280;65385;55.772;37.658;2023-07-24T02:08:40;99070.53;;;18.90
76541;BMP280;65385;55.772;37.658;2023-07-24T02:09:42;99073.72;;;19.07
76541;BMP280;65385;55.772;37.658;2023-07-24T02:10:43;99068.50;;;19.23
76541;BMP280;65385;55.772;37.658;2023-07-24T02:11:44;99068.66;;;19.42
76541;BMP280;65385;55.772;37.658;2023-07-24T02:12:44;99075.59;;;19.59
76541;BMP280;65385;55.772;37.658;2023-07-24T02:13:45;99066.88;;;19.74
76541;BMP280;65385;55.772;37.658;2023-07-24T02:14:46;99067.66;;;19.90
76541;BMP280;65385;55.772;37.658;2023-07-24T02:15:50;99067.34;;;20.07
76541;BMP280;65385;55.772;37.658;2023-07-24T02:16:52;99067.41;;;20.23
76541;BMP280;65385;55.772;37.658;2023-07-24T02:17:53;99070.72;;;20.35
76541;BMP280;65385;55.772;37.658;2023-07-24T02:18:54;99064.28;;;20.52
76541;BMP280;65385;55.772;37.658;2023-07-24T02:19:55;99067.56;;;20.61
76541;BMP280;65385;55.772;37.658;2023-07-24T02:20:55;99068.63;;;20.76
76541;BMP280;65385;55.772;37.658;2023-07-24T02:21:58;99063.53;;;20.86
76541;BMP280;65385;55.772;37.658;2023-07-24T02:22:59;99062.53;;;21.10
76541;BMP280;65385;55.772;37.658;2023-07-24T02:24:01;99074.66;;;21.27
76541;BMP280;65385;55.772;37.658;2023-07-24T02:25:05;99068.41;;;21.38
76541;BMP280;65385;55.772;37.658;2023-07-24T02:26:06;99068.75;;;21.56
76541;BMP280;65385;55.772;37.658;2023-07-24T02:27:12;99067.94;;;21.74
76541;BMP280;65385;55.772;37.658;2023-07-24T02:28:12;99071.75;;;21.96
76541;BMP280;65385;55.772;37.658;2023-07-24T02:29:13;99062.84;;;22.08
76541;BMP280;65385;55.772;37.658;2023-07-24T02:30:14;99075.84;;;22.13
76541;BMP280;65385;55.772;37.658;2023-07-24T02:31:14;99073.22;;;22.16
76541;BMP280;65385;55.772;37.658;2023-07-24T02:32:15;99070.66;;;22.23
76541;BMP280;65385;55.772;37.658;2023-07-24T02:33:16;99077.56;;;22.24
76541;BMP280;65385;55.772;37.658;2023-07-24T02:34:17;99068.78;;;22.24
76541;BMP280;65385;55.772;37.658;2023-07-24T02:35:17;99072.97;;;22.25
76541;BMP280;65385;55.772;37.658;2023-07-24T02:36:20;99075.00;;;22.31
76541;BMP280;65385;55.772;37.658;2023-07-24T02:37:21;99073.28;;;22.42
76541;BMP280;65385;55.772;37.658;2023-07-24T02:38:21;99072.63;;;22.52
76541;BMP280;65385;55.772;37.658;2023-07-24T02:39:22;99071.38;;;22.69
76541;BMP280;65385;55.772;37.658;2023-07-24T02:40:22;99071.72;;;22.68
76541;BMP280;65385;55.772;37.658;2023-07-24T02:41:23;99073.66;;;22.71
76541;BMP280;65385;55.772;37.658;2023-07-24T02:42:25;99073.13;;;22.88
76541;BMP280;65385;55.772;37.658;2023-07-24T02:43:25;99062.28;;;23.03
76541;BMP280;65385;55.772;37.658;2023-07-24T02:44:26;99062.75;;;23.12
76541;BMP280;65385;55.772;37.658;2023-07-24T02:45:27;99070.69;;;23.39
76541;BMP280;65385;55.772;37.658;2023-07-24T02:46:27;99066.25;;;23.53
76541;BMP280;65385;55.772;37.658;2023-07-24T02:47:29;99067.09;;;23.61
76541;BMP280;65385;55.772;37.658;2023-07-24T02:48:29;99061.16;;;23.78
76541;BMP280;65385;55.772;37.658;2023-07-24T02:49:30;99060.91;;;23.94
76541;BMP280;65385;55.772;37.658;2023-07-24T02:50:32;99059.75;;;23.91
76541;BMP280;65385;55.772;37.658;2023-07-24T02:51:33;99062.19;;;24.10
76541;BMP280;65385;55.772;37.658;2023-07-24T02:52:34;99063.44;;;24.27
76541;BMP280;65385;55.772;37.658;2023-07-24T02:53:35;99059.66;;;24.31
76541;BMP280;65385;55.772;37.658;2023-07-24T02:54:35;99059.34;;;24.43
76541;BMP280;65385;55.772;37.658;2023-07-24T02:55:36;99056.72;;;24.50
76541;BMP280;65385;55.772;37.658;2023-07-24T02:56:37;99064.09;;;24.71
76541;BMP280;65385;55.772;37.658;2023-07-24T02:57:37;99059.13;;;24.77
76541;BMP280;65385;55.772;37.658;2023-07-24T02:58:38;99065.28;;;24.84
76541;BMP280;65385;55.772;37.658;2023-07-24T02:59:39;99070.25;;;24.79
76541;BMP280;65385;55.772;37.658;2023-07-24T03:00:40;99067.06;;;24.59
76541;BMP280;65385;55.772;37.658;2023-07-24T03:01:40;99073.38;;;24.26
76541;BMP280;65385;55.772;37.658;2023-07-24T03:02:41;99070.50;;;23.98
76541;BMP280;65385;55.772;37.658;2023-07-24T03:03:42;99060.41;;;23.81
76541;BMP280;65385;55.772;37.658;2023-07-24T03:04:42;99074.31;;;23.57
76541;BMP280;65385;55.772;37.658;2023-07-24T03:05:43;99080.63;;;23.42
76541;BMP280;65385;55.772;37.658;2023-07-24T03:06:44;99073.28;;;23.32
76541;BMP280;65385;55.772;37.658;2023-07-24T03:07:44;99079.91;;;23.11
76541;BMP280;65385;55.772;37.658;2023-07-24T03:08:45;99073.19;;;22.91
76541;BMP280;65385;55.772;37.658;2023-07-24T03:09:45;99076.25;;;22.93
76541;BMP280;65385;55.772;37.658;2023-07-24T03:10:46;99065.00;;;23.07
76541;BMP280;65385;55.772;37.658;2023-07-24T03:11:49;99065.44;;;23.12
76541;BMP280;65385;55.772;37.658;2023-07-24T03:12:50;99062.75;;;23.12
76541;BMP280;65385;55.772;37.658;2023-07-24T03:13:50;99060.53;;;23.14
76541;BMP280;65385;55.772;37.658;2023-07-24T03:14:51;99059.31;;;23.12
76541;BMP280;65385;55.772;37.658;2023-07-24T03:15:56;99063.63;;;22.90
76541;BMP280;65385;55.772;37.658;2023-07-24T03:16:57;99067.72;;;22.55
76541;BMP280;65385;55.772;37.658;2023-07-24T03:17:57;99067.59;;;22.21
76541;BMP280;65385;55.772;37.658;2023-07-24T03:18:58;99061.06;;;21.93
76541;BMP280;65385;55.772;37.658;2023-07-24T03:19:59;99066.72;;;21.68
76541;BMP280;65385;55.772;37.658;2023-07-24T03:21:00;99067.72;;;21.41
76541;BMP280;65385;55.772;37.658;2023-07-24T03:22:01;99071.47;;;21.21
76541;BMP280;65385;55.772;37.658;2023-07-24T03:23:01;99066.16;;;21.02
76541;BMP280;65385;55.772;37.658;2023-07-24T03:24:02;99073.41;;;20.86
76541;BMP280;65385;55.772;37.658;2023-07-24T03:25:03;99072.41;;;20.75
76541;BMP280;65385;55.772;37.658;2023-07-24T03:26:04;99072.38;;;20.90
76541;BMP280;65385;55.772;37.658;2023-07-24T03:27:04;99075.88;;;20.94
76541;BMP280;65385;55.772;37.658;2023-07-24T03:28:05;99078.50;;;21.10
76541;BMP280;65385;55.772;37.658;2023-07-24T03:29:06;99075.53;;;21.15
76541;BMP280;65385;55.772;37.658;2023-07-24T03:30:07;99081.94;;;21.10
76541;BMP280;65385;55.772;37.658;2023-07-24T03:31:08;99085.56;;;21.02
76541;BMP280;65385;55.772;37.658;2023-07-24T03:32:08;99084.47;;;21.07
76541;BMP280;65385;55.772;37.658;2023-07-24T03:33:09;99082.53;;;21.23
76541;BMP280;65385;55.772;37.658;2023-07-24T03:34:09;99089.06;;;21.45
76541;BMP280;65385;55.772;37.658;2023-07-24T03:35:10;99080.84;;;21.72
76541;BMP280;65385;55.772;37.658;2023-07-24T03:36:12;99089.81;;;22.06
76541;BMP280;65385;55.772;37.658;2023-07-24T03:37:13;99079.50;;;22.27
76541;BMP280;65385;55.772;37.658;2023-07-24T03:38:13;99077.84;;;22.42
76541;BMP280;65385;55.772;37.658;2023-07-24T03:39:14;99080.16;;;22.43
76541;BMP280;65385;55.772;37.658;2023-07-24T03:40:15;99083.44;;;22.37
76541;BMP280;65385;55.772;37.658;2023-07-24T03:41:16;99078.44;;;22.32
76541;BMP280;65385;55.772;37.658;2023-07-24T03:42:30;99079.78;;;22.22
76541;BMP280;65385;55.772;37.658;2023-07-24T03:43:31;99081.97;;;22.13
76541;BMP280;65385;55.772;37.658;2023-07-24T03:44:31;99080.56;;;22.23
76541;BMP280;65385;55.772;37.658;2023-07-24T03:45:32;99083.06;;;22.35
76541;BMP280;65385;55.772;37.658;2023-07-24T03:46:33;99085.72;;;22.35
76541;BMP280;65385;55.772;37.658;2023-07-24T03:47:34;99084.88;;;22.31
76541;BMP280;65385;55.772;37.658;2023-07-24T03:48:34;99089.09;;;22.32
76541;BMP280;65385;55.772;37.658;2023-07-24T03:49:35;99080.78;;;22.37
76541;BMP280;65385;55.772;37.658;2023-07-24T03:50:35;99084.41;;;22.25
76541;BMP280;65385;55.772;37.658;2023-07-24T03:51:36;99088.19;;;22.21
76541;BMP280;65385;55.772;37.658;2023-07-24T03:52:37;99078.81;;;22.08
76541;BMP280;65385;55.772;37.658;2023-07-24T03:53:37;99081.53;;;21.88
76541;BMP280;65385;55.772;37.658;2023-07-24T03:54:38;99077.06;;;21.73
76541;BMP280;65385;55.772;37.658;2023-07-24T03:55:39;99073.84;;;21.64
76541;BMP280;65385;55.772;37.658;2023-07-24T03:56:39;99072.25;;;21.60
76541;BMP280;65385;55.772;37.658;2023-07-24T03:57:40;99070.69;;;21.59
76541;BMP280;65385;55.772;37.658;2023-07-24T03:58:41;99072.06;;;21.49
76541;BMP280;65385;55.772;37.658;2023-07-24T03:59:44;99063.22;;;21.45
76541;BMP280;65385;55.772;37.658;2023-07-24T04:00:45;99064.53;;;21.36
76541;BMP280;65385;55.772;37.658;2023-07-24T04:01:46;99073.13;;;21.26
76541;BMP280;65385;55.772;37.658;2023-07-24T04:02:47;99080.84;;;21.15
76541;BMP280;65385;55.772;37.658;2023-07-24T04:03:48;99079.78;;;21.00
76541;BMP280;65385;55.772;37.658;2023-07-24T04:04:48;99070.66;;;20.98
76541;BMP280;65385;55.772;37.658;2023-07-24T04:05:49;99080.84;;;20.96
76541;BMP280;65385;55.772;37.658;2023-07-24T04:06:50;99085.66;;;20.90
76541;BMP280;65385;55.772;37.658;2023-07-24T04:07:51;99080.97;;;20.84
76541;BMP280;65385;55.772;37.658;2023-07-24T04:08:51;99077.03;;;20.78
76541;BMP280;65385;55.772;37.658;2023-07-24T04:09:52;99087.75;;;20.81
76541;BMP280;65385;55.772;37.658;2023-07-24T04:10:52;99081.56;;;20.77
76541;BMP280;65385;55.772;37.658;2023-07-24T04:11:53;99089.13;;;20.75
76541;BMP280;65385;55.772;37.658;2023-07-24T04:12:54;99090.16;;;20.71
76541;BMP280;65385;55.772;37.658;2023-07-24T04:13:55;99086.19;;;20.80
76541;BMP280;65385;55.772;37.658;2023-07-24T04:14:55;99085.44;;;20.80
76541;BMP280;65385;55.772;37.658;2023-07-24T04:15:56;99087.22;;;20.91
76541;BMP280;65385;55.772;37.658;2023-07-24T04:16:57;99075.81;;;20.91
76541;BMP280;65385;55.772;37.658;2023-07-24T04:17:58;99077.91;;;21.01
76541;BMP280;65385;55.772;37.658;2023-07-24T04:18:59;99083.00;;;21.06
76541;BMP280;65385;55.772;37.658;2023-07-24T04:19:59;99081.03;;;21.22
76541;BMP280;65385;55.772;37.658;2023-07-24T04:21:00;99084.94;;;21.47
76541;BMP280;65385;55.772;37.658;2023-07-24T04:22:01;99079.72;;;21.73
76541;BMP280;65385;55.772;37.658;2023-07-24T04:23:01;99093.03;;;21.93
76541;BMP280;65385;55.772;37.658;2023-07-24T04:24:02;99089.84;;;22.10
76541;BMP280;65385;55.772;37.658;2023-07-24T04:25:03;99084.41;;;22.25
76541;BMP280;65385;55.772;37.658;2023-07-24T04:26:04;99089.28;;;22.42
76541;BMP280;65385;55.772;37.658;2023-07-24T04:27:05;99080.78;;;22.63
76541;BMP280;65385;55.772;37.658;2023-07-24T04:28:06;99083.16;;;22.68
76541;BMP280;65385;55.772;37.658;2023-07-24T04:29:06;99092.81;;;22.76
76541;BMP280;65385;55.772;37.658;2023-07-24T04:30:07;99094.00;;;22.82
76541;BMP280;65385;55.772;37.658;2023-07-24T04:31:08;99086.78;;;22.83
76541;BMP280;65385;55.772;37.658;2023-07-24T04:32:08;99081.81;;;22.81
76541;BMP280;65385;55.772;37.658;2023-07-24T04:33:09;99083.09;;;22.91
76541;BMP280;65385;55.772;37.658;2023-07-24T04:34:10;99084.34;;;23.00
76541;BMP280;65385;55.772;37.658;2023-07-24T04:35:10;99081.22;;;23.25
76541;BMP280;65385;55.772;37.658;2023-07-24T04:36:11;99083.69;;;23.40
76541;BMP280;65385;55.772;37.658;2023-07-24T04:37:11;99086.97;;;23.63
76541;BMP280;65385;55.772;37.658;2023-07-24T04:38:12;99075.69;;;23.80
76541;BMP280;65385;55.772;37.658;2023-07-24T04:39:13;99078.19;;;24.07
76541;BMP280;65385;55.772;37.658;2023-07-24T04:40:13;99075.22;;;24.19
76541;BMP280;65385;55.772;37.658;2023-07-24T04:41:14;99080.03;;;24.46
76541;BMP280;65385;55.772;37.658;2023-07-24T04:42:14;99070.56;;;24.67
76541;BMP280;65385;55.772;37.658;2023-07-24T04:43:15;99074.91;;;24.96
76541;BMP280;65385;55.772;37.658;2023-07-24T04:44:16;99064.66;;;25.22
76541;BMP280;65385;55.772;37.658;2023-07-24T04:45:16;99065.88;;;25.53
76541;BMP280;65385;55.772;37.658;2023-07-24T04:46:17;99069.72;;;25.70
76541;BMP280;65385;55.772;37.658;2023-07-24T04:47:17;99063.53;;;25.94
76541;BMP280;65385;55.772;37.658;2023-07-24T04:48:18;99064.31;;;26.02
76541;BMP280;65385;55.772;37.658;2023-07-24T04:49:19;99062.03;;;25.89
76541;BMP280;65385;55.772;37.658;2023-07-24T04:50:19;99054.38;;;25.77
76541;BMP280;65385;55.772;37.658;2023-07-24T04:51:20;99067.38;;;25.61
76541;BMP280;65385;55.772;37.658;2023-07-24T04:52:20;99058.94;;;25.45
76541;BMP280;65385;55.772;37.658;2023-07-24T04:53:21;99066.59;;;25.50
76541;BMP280;65385;55.772;37.658;2023-07-24T04:54:22;99058.59;;;25.47
76541;BMP280;65385;55.772;37.658;2023-07-24T04:55:22;99062.38;;;25.35
76541;BMP280;65385;55.772;37.658;2023-07-24T04:56:23;99056.56;;;25.05
76541;BMP280;65385;55.772;37.658;2023-07-24T04:57:24;99058.81;;;24.89
76541;BMP280;65385;55.772;37.658;2023-07-24T04:58:25;99056.44;;;24.73
76541;BMP280;65385;55.772;37.658;2023-07-24T04:59:25;99064.78;;;24.58
76541;BMP280;65385;55.772;37.658;2023-07-24T05:00:26;99057.06;;;24.45
76541;BMP280;65385;55.772;37.658;2023-07-24T05:01:26;99059.25;;;24.29
76541;BMP280;65385;55.772;37.658;2023-07-24T05:02:27;99057.31;;;24.23
76541;BMP280;65385;55.772;37.658;2023-07-24T05:03:27;99067.53;;;24.14
76541;BMP280;65385;55.772;37.658;2023-07-24T05:04:28;99064.03;;;24.06
76541;BMP280;65385;55.772;37.658;2023-07-24T05:05:29;99062.03;;;23.89
76541;BMP280;65385;55.772;37.658;2023-07-24T05:06:29;99062.41;;;23.88
76541;BMP280;65385;55.772;37.658;2023-07-24T05:07:30;99068.03;;;23.79
76541;BMP280;65385;55.772;37.658;2023-07-24T05:08:31;99062.22;;;23.70
76541;BMP280;65385;55.772;37.658;2023-07-24T05:09:32;99071.63;;;23.57
76541;BMP280;65385;55.772;37.658;2023-07-24T05:10:36;99068.47;;;23.44
76541;BMP280;65385;55.772;37.658;2023-07-24T05:11:36;99069.88;;;23.35
76541;BMP280;65385;55.772;37.658;2023-07-24T05:12:37;99074.34;;;23.24
76541;BMP280;65385;55.772;37.658;2023-07-24T05:13:38;99069.66;;;23.13
76541;BMP280;65385;55.772;37.658;2023-07-24T05:14:38;99067.31;;;23.08
76541;BMP280;65385;55.772;37.658;2023-07-24T05:15:39;99066.91;;;23.06
76541;BMP280;65385;55.772;37.658;2023-07-24T05:16:39;99072.63;;;23.08
76541;BMP280;65385;55.772;37.658;2023-07-24T05:17:40;99069.56;;;23.06
76541;BMP280;65385;55.772;37.658;2023-07-24T05:18:41;99069.56;;;23.06
76541;BMP280;65385;55.772;37.658;2023-07-24T05:19:41;99070.75;;;23.09
76541;BMP280;65385;55.772;37.658;2023-07-24T05:20:44;99066.16;;;23.09
76541;BMP280;65385;55.772;37.658;2023-07-24T05:21:46;99074.03;;;23.29
76541;BMP280;65385;55.772;37.658;2023-07-24T05:22:46;99069.94;;;23.38
76541;BMP280;65385;55.772;37.658;2023-07-24T05:23:47;99067.66;;;23.40
76541;BMP280;65385;55.772;37.658;2023-07-24T05:24:47;99064.72;;;23.52
76541;BMP280;65385;55.772;37.658;2023-07-24T05:25:58;99070.06;;;23.52
76541;BMP280;65385;55.772;37.658;2023-07-24T05:26:59;99070.09;;;23.56
76541;BMP280;65385;55.772;37.658;2023-07-24T05:27:59;99060.16;;;23.53
76541;BMP280;65385;55.772;37.658;2023-07-24T05:29:00;99062.78;;;23.49
76541;BMP280;65385;55.772;37.658;2023-07-24T05:30:00;99071.44;;;23.36
76541;BMP280;65385;55.772;37.658;2023-07-24T05:31:04;99064.00;;;23.18
76541;BMP280;65385;55.772;37.658;2023-07-24T05:32:05;99066.13;;;23.06
76541;BMP280;65385;55.772;37.658;2023-07-24T05:33:05;99065.66;;;23.00
76541;BMP280;65385;55.772;37.658;2023-07-24T05:34:06;99069.78;;;22.94
76541;BMP280;65385;55.772;37.658;2023-07-24T05:35:07;99076.97;;;22.90
76541;BMP280;65385;55.772;37.658;2023-07-24T05:36:08;99070.75;;;22.79
76541;BMP280;65385;55.772;37.658;2023-07-24T05:37:08;99068.66;;;22.66
76541;BMP280;65385;55.772;37.658;2023-07-24T05:38:10;99068.16;;;22.60
76541;BMP280;65385;55.772;37.658;2023-07-24T05:39:11;99073.38;;;22.49
76541;BMP280;65385;55.772;37.658;2023-07-24T05:40:11;99068.72;;;22.43
76541;BMP280;65385;55.772;37.658;2023-07-24T05:41:12;99078.41;;;22.28
76541;BMP280;65385;55.772;37.658;2023-07-24T05:42:13;99065.19;;;22.13
76541;BMP280;65385;55.772;37.658;2023-07-24T05:43:13;99068.38;;;21.99
76541;BMP280;65385;55.772;37.658;2023-07-24T05:44:14;99074.19;;;21.82
76541;BMP280;65385;55.772;37.658;2023-07-24T05:45:15;99065.84;;;21.64
76541;BMP280;65385;55.772;37.658;2023-07-24T05:46:16;99071.00;;;21.54
76541;BMP280;65385;55.772;37.658;2023-07-24T05:47:16;99062.41;;;21.41
76541;BMP280;65385;55.772;37.658;2023-07-24T05:48:17;99073.06;;;21.41
76541;BMP280;65385;55.772;37.658;2023-07-24T05:49:18;99058.75;;;21.30
76541;BMP280;65385;55.772;37.658;2023-07-24T05:50:19;99059.53;;;21.31
76541;BMP280;65385;55.772;37.658;2023-07-24T05:51:20;99057.47;;;21.24